Time;durP1;ratioP1;P1;durP2;ratioP2;P2;SDS_P1;SDS_P2;PMS_P1;PMS_P2;Temp;Humidity;BMP_temperature;BMP_pressure;BME280_temperature;BME280_humidity;BME280_pressure;Samples;Min_cycle;Max_cycle;Signal;HPM_P1;HPM_P2
2022/08/20 00:02:21;;;;;;;13.65;10.88;;;;;;;21.84;78.25;96630.56;4988038;28;20050;-58
2022/08/20 00:04:48;;;;;;;12.85;11.30;;;;;;;21.88;78.07;96645.31;4988296;28;20054;-59
2022/08/20 00:07:15;;;;;;;12.80;11.20;;;;;;;21.79;77.77;96648.03;4987855;28;20289;-62
2022/08/20 00:09:43;;;;;;;14.27;10.32;;;;;;;21.69;78.39;96660.41;4988149;28;20057;-62
2022/08/20 00:12:11;;;;;;;15.30;10.25;;;;;;;21.71;78.26;96655.13;4987856;28;20054;-63
2022/08/20 00:14:39;;;;;;;13.10;10.82;;;;;;;21.69;79.03;96649.16;4986423;28;20218;-62
2022/08/20 00:17:05;;;;;;;14.63;11.90;;;;;;;21.50;78.43;96612.75;4987856;28;20442;-63
2022/08/20 00:19:33;;;;;;;16.83;10.88;;;;;;;21.79;78.48;96659.31;4987836;28;20054;-58
2022/08/20 00:21:59;;;;;;;13.90;10.70;;;;;;;21.32;78.93;96607.69;4987431;28;20576;-62
2022/08/20 00:24:26;;;;;;;14.38;10.60;;;;;;;21.38;79.21;96600.25;4987929;28;20429;-59
2022/08/20 00:26:53;;;;;;;15.30;11.30;;;;;;;21.63;79.65;96645.31;4987671;28;20437;-62
2022/08/20 00:29:19;;;;;;;14.88;11.65;;;;;;;21.60;79.45;96649.03;4987748;28;20054;-58
2022/08/20 00:31:49;;;;;;;15.43;10.50;;;;;;;21.65;79.24;96637.22;4987357;28;20093;-59
2022/08/20 00:34:16;;;;;;;12.82;10.73;;;;;;;21.51;79.64;96620.75;4998768;28;20483;-63
2022/08/20 00:36:43;;;;;;;15.98;11.30;;;;;;;21.42;80.40;96609.34;5005600;28;20057;-62
2022/08/20 00:39:09;;;;;;;13.77;11.00;;;;;;;21.17;80.97;96589.66;5007062;28;21118;-63
2022/08/20 00:41:36;;;;;;;13.13;11.25;;;;;;;21.31;82.44;96637.09;5005626;28;20050;-58
2022/08/20 00:44:13;;;;;;;13.70;11.35;;;;;;;21.18;83.78;96630.69;5006774;28;20120;-62
2022/08/20 00:46:42;;;;;;;12.52;11.23;;;;;;;21.02;84.95;96621.53;5005579;28;20054;-62
2022/08/20 00:49:20;;;;;;;16.55;11.70;;;;;;;20.95;84.82;96622.50;5005418;28;20496;-60
2022/08/20 00:51:56;;;;;;;15.25;11.75;;;;;;;20.91;85.90;96621.84;5006487;28;20054;-59
2022/08/20 00:54:32;;;;;;;16.70;12.57;;;;;;;20.88;86.48;96617.88;5006597;28;20054;-62
2022/08/20 00:57:09;;;;;;;17.40;12.00;;;;;;;20.86;87.07;96619.56;5006235;28;20056;-58
2022/08/20 00:59:38;;;;;;;22.73;12.05;;;;;;;20.78;87.93;96609.75;5007058;28;20054;-58
2022/08/20 01:02:10;;;;;;;16.70;12.70;;;;;;;20.55;87.81;96559.38;5006584;28;20062;-63
2022/08/20 01:04:37;;;;;;;15.75;11.95;;;;;;;20.91;86.91;96604.94;5005385;28;20100;-59
2022/08/20 01:07:05;;;;;;;14.75;12.70;;;;;;;20.63;87.59;96574.81;5006365;28;20267;-59
2022/08/20 01:09:36;;;;;;;14.35;11.70;;;;;;;20.87;87.61;96609.88;5006693;28;20054;-59
2022/08/20 01:12:24;;;;;;;16.95;12.43;;;;;;;20.85;87.71;96601.06;5006007;28;20089;-64
2022/08/20 01:14:51;;;;;;;15.50;12.27;;;;;;;20.87;87.46;96609.88;5005805;28;20072;-58
2022/08/20 01:17:22;;;;;;;15.82;12.95;;;;;;;20.71;87.83;96636.09;5005605;28;20420;-59
2022/08/20 01:20:00;;;;;;;16.33;13.40;;;;;;;20.73;88.29;96605.47;5004968;28;20057;-63
2022/08/20 01:25:29;;;;;;;18.05;11.85;;;;;;;20.67;88.83;96609.28;5005968;28;20058;-59
2022/08/20 01:27:56;;;;;;;17.60;13.02;;;;;;;20.70;88.87;96602.75;5006059;28;20588;-63
2022/08/20 01:30:26;;;;;;;15.82;12.38;;;;;;;20.75;87.91;96602.19;5005573;28;20061;-58
2022/08/20 01:32:53;;;;;;;18.58;13.35;;;;;;;20.28;87.51;96539.28;5005571;28;20061;-63
2022/08/20 01:35:21;;;;;;;15.40;12.50;;;;;;;20.64;87.56;96601.72;4986510;28;20050;-63
2022/08/20 01:37:48;;;;;;;16.48;12.32;;;;;;;20.67;87.49;96598.03;4986297;28;20057;-58
2022/08/20 01:40:26;;;;;;;15.77;11.85;;;;;;;20.58;87.57;96586.63;4986341;28;20057;-58
2022/08/20 01:42:53;;;;;;;16.73;12.48;;;;;;;20.24;87.51;96530.94;4984542;28;20058;-63
2022/08/20 01:45:27;;;;;;;15.50;12.77;;;;;;;20.63;87.50;96588.88;4984740;28;20078;-63
2022/08/20 01:47:56;;;;;;;19.17;12.32;;;;;;;20.62;89.31;96587.31;4986231;28;20552;-63
2022/08/20 01:50:27;;;;;;;15.00;12.93;;;;;;;20.66;89.56;96585.19;4986708;28;20536;-63
2022/08/20 01:53:03;;;;;;;16.30;13.80;;;;;;;20.61;89.89;96585.75;4986182;28;20061;-59
2022/08/20 01:55:30;;;;;;;15.25;12.95;;;;;;;20.62;90.70;96576.03;4991463;28;20064;-63
2022/08/20 01:57:59;;;;;;;20.80;13.05;;;;;;;20.71;90.44;96578.97;4984683;28;20513;-59
2022/08/20 02:00:26;;;;;;;15.60;13.40;;;;;;;20.32;90.67;96534.34;4986341;28;20512;-63
2022/08/20 02:02:53;;;;;;;19.75;14.07;;;;;;;20.22;90.44;96518.53;4985946;28;20052;-59
2022/08/20 02:05:21;;;;;;;19.25;14.07;;;;;;;20.32;90.42;96534.34;4986467;28;20073;-63
2022/08/20 02:07:48;;;;;;;19.23;13.23;;;;;;;20.46;90.37;96556.41;4984473;28;20050;-59
2022/08/20 02:10:16;;;;;;;17.67;13.45;;;;;;;20.56;91.20;96586.28;4986088;28;20116;-63
2022/08/20 02:12:43;;;;;;;17.10;13.35;;;;;;;20.46;92.33;96595.81;4985762;28;20060;-58
2022/08/20 02:15:11;;;;;;;19.27;13.25;;;;;;;20.43;91.89;96568.56;4984368;28;20163;-63
2022/08/20 02:17:40;;;;;;;18.17;12.88;;;;;;;20.61;90.92;96591.38;4985884;28;20394;-63
2022/08/20 02:20:14;;;;;;;20.10;13.88;;;;;;;20.15;91.71;96533.63;4985606;28;20141;-59
2022/08/20 02:22:49;;;;;;;21.70;14.57;;;;;;;20.48;92.20;96582.09;4985791;28;20054;-59
2022/08/20 02:25:18;;;;;;;19.55;13.82;;;;;;;20.45;92.98;96583.00;4985851;28;20064;-58
2022/08/20 02:27:47;;;;;;;17.13;13.70;;;;;;;20.47;93.55;96586.16;4984826;28;20062;-62
2022/08/20 02:30:26;;;;;;;20.80;14.45;;;;;;;20.30;93.31;96556.47;4984088;28;20054;-63
2022/08/20 02:32:53;;;;;;;18.23;14.10;;;;;;;20.51;92.91;96575.56;4985399;28;20065;-59
2022/08/20 02:35:23;;;;;;;16.95;14.02;;;;;;;20.42;93.32;96572.63;5005095;28;20481;-63
2022/08/20 02:37:50;;;;;;;16.40;14.13;;;;;;;20.28;94.03;96573.03;5003680;28;20065;-63
2022/08/20 02:40:19;;;;;;;16.60;14.52;;;;;;;20.26;94.62;96581.13;5003681;28;20056;-58
2022/08/20 02:42:57;;;;;;;19.65;14.35;;;;;;;19.97;93.66;96536.09;5004983;28;20132;-60
2022/08/20 02:45:25;;;;;;;16.65;13.80;;;;;;;20.34;94.04;96583.31;5005438;28;20065;-58
2022/08/20 02:47:53;;;;;;;17.25;14.50;;;;;;;20.13;94.23;96546.50;5003655;28;20438;-59
2022/08/20 02:50:21;;;;;;;16.58;13.88;;;;;;;20.37;94.08;96573.19;5004946;28;20116;-61
2022/08/20 02:52:47;;;;;;;23.60;18.50;;;;;;;20.26;94.17;96573.50;5004556;28;20057;-59
2022/08/20 02:55:17;;;;;;;25.40;18.63;;;;;;;20.16;93.99;96542.84;5005000;28;20060;-63
2022/08/20 02:57:58;;;;;;;23.77;15.65;;;;;;;20.25;94.92;96571.13;5004778;28;20057;-63
2022/08/20 03:00:29;;;;;;;18.40;15.73;;;;;;;20.29;94.70;96563.34;5004699;28;20181;-63
2022/08/20 03:03:05;;;;;;;16.58;13.85;;;;;;;20.42;93.87;96567.00;5003395;28;20060;-59
2022/08/20 03:05:32;;;;;;;18.70;14.23;;;;;;;20.38;94.16;96577.56;5004870;28;20104;-63
2022/08/20 03:07:59;;;;;;;18.58;13.93;;;;;;;20.32;94.79;96562.47;5004714;28;20073;-58
2022/08/20 03:10:30;;;;;;;18.08;14.05;;;;;;;20.40;94.88;96569.47;5003242;28;20492;-63
2022/08/20 03:12:59;;;;;;;21.50;14.57;;;;;;;20.32;95.48;96580.16;5004227;28;20064;-63
2022/08/20 03:15:28;;;;;;;19.38;15.90;;;;;;;19.97;95.49;96536.09;5004788;28;20054;-58
2022/08/20 03:17:54;;;;;;;20.38;15.55;;;;;;;20.12;94.34;96581.50;5004600;28;20053;-58
2022/08/20 03:20:22;;;;;;;18.13;14.45;;;;;;;20.23;94.05;96576.41;5004367;28;20053;-58
2022/08/20 03:22:50;;;;;;;20.73;14.93;;;;;;;20.28;93.79;96570.22;5003191;28;20077;-58
2022/08/20 03:25:17;;;;;;;21.38;15.80;;;;;;;20.23;95.34;96576.41;5004743;28;20057;-63
2022/08/20 03:27:45;;;;;;;19.50;15.63;;;;;;;20.20;95.52;96585.72;5005058;28;20061;-62
2022/08/20 03:30:20;;;;;;;22.20;15.90;;;;;;;19.81;96.58;96538.16;5004501;28;20069;-59
2022/08/20 03:32:46;;;;;;;18.63;14.60;;;;;;;20.03;97.27;96579.31;5004479;28;20567;-60
2022/08/20 03:35:16;;;;;;;22.65;15.43;;;;;;;20.10;93.94;96589.59;4986229;28;20055;-59
2022/08/20 03:37:43;;;;;;;16.08;13.90;;;;;;;20.06;92.58;96588.91;4984731;28;20051;-60
2022/08/20 03:40:25;;;;;;;22.38;14.43;;;;;;;20.03;91.85;96576.50;4988792;28;20058;-59
2022/08/20 03:42:52;;;;;;;24.75;15.27;;;;;;;19.44;92.93;96515.06;4988644;28;20054;-63
2022/08/20 03:45:20;;;;;;;18.23;13.93;;;;;;;19.91;93.70;96588.50;4988897;28;20050;-60
2022/08/20 03:47:48;;;;;;;20.60;15.25;;;;;;;19.98;93.49;96582.66;4989042;28;20046;-62
2022/08/20 03:50:18;;;;;;;22.55;16.27;;;;;;;19.99;94.70;96589.88;4988879;28;20539;-63
2022/08/20 03:52:52;;;;;;;23.27;15.73;;;;;;;20.06;94.76;96605.78;4988226;28;20097;-59
2022/08/20 03:55:20;;;;;;;22.77;15.00;;;;;;;20.12;94.60;96592.75;4988973;28;20046;-58
2022/08/20 03:57:51;;;;;;;17.20;14.25;;;;;;;19.91;93.67;96551.94;4988202;28;20034;-62
2022/08/20 04:00:34;;;;;;;20.10;14.50;;;;;;;20.17;92.08;96600.69;4988599;28;20145;-63
2022/08/20 04:03:01;;;;;;;22.15;15.52;;;;;;;20.16;92.41;96593.47;4988504;28;20061;-63
2022/08/20 04:05:30;;;;;;;18.23;14.68;;;;;;;20.28;92.93;96595.53;4988479;28;20504;-59
2022/08/20 04:07:59;;;;;;;18.33;15.40;;;;;;;19.94;93.34;96541.81;4988442;28;20153;-59
2022/08/20 04:10:30;;;;;;;19.50;15.23;;;;;;;20.39;93.73;96601.66;4988276;28;20061;-59
2022/08/20 04:12:56;;;;;;;17.83;15.35;;;;;;;20.44;93.92;96596.25;4986658;28;20065;-63
2022/08/20 04:15:24;;;;;;;19.23;14.60;;;;;;;20.58;93.04;96593.03;4988178;28;20082;-61
2022/08/20 04:17:52;;;;;;;20.50;15.23;;;;;;;20.58;92.73;96603.53;4993027;28;20341;-59
2022/08/20 04:20:22;;;;;;;22.70;15.25;;;;;;;20.54;93.74;96591.56;4987995;28;20138;-63
2022/08/20 04:22:51;;;;;;;19.98;14.75;;;;;;;20.61;93.70;96588.56;4986157;28;20169;-60
2022/08/20 04:25:27;;;;;;;16.77;14.98;;;;;;;20.81;92.82;96586.31;4986755;28;20121;-63
2022/08/20 04:27:56;;;;;;;21.92;15.32;;;;;;;20.91;92.38;96582.41;4988137;28;20058;-64
2022/08/20 04:30:24;;;;;;;19.35;15.77;;;;;;;20.67;91.88;96538.91;4986193;28;20082;-62
2022/08/20 04:32:52;;;;;;;21.85;14.63;;;;;;;21.10;90.98;96601.16;4987213;28;20058;-63
2022/08/20 04:35:20;;;;;;;17.52;14.13;;;;;;;20.96;89.79;96545.25;5004446;28;20649;-58
2022/08/20 04:37:47;;;;;;;18.52;14.60;;;;;;;21.11;89.26;96552.03;5005507;28;20536;-58
2022/08/20 04:43:04;;;;;;;17.33;14.55;;;;;;;21.39;89.50;96578.47;5006978;28;20068;-62
2022/08/20 04:45:32;;;;;;;18.48;14.00;;;;;;;21.47;89.46;96579.81;5006864;28;20065;-62
2022/08/20 04:48:04;;;;;;;19.30;14.52;;;;;;;21.70;88.01;96583.06;5005562;28;20064;-62
2022/08/20 04:50:35;;;;;;;21.70;15.60;;;;;;;21.79;87.32;96591.66;5005893;28;20433;-58
2022/08/20 04:53:04;;;;;;;22.60;14.82;;;;;;;21.93;85.95;96582.69;5005384;28;20057;-58
2022/08/20 04:55:32;;;;;;;22.98;14.98;;;;;;;22.10;84.11;96578.44;5006666;28;20487;-58
2022/08/20 04:58:07;;;;;;;21.33;15.32;;;;;;;21.84;83.15;96531.84;5006420;28;20053;-65
2022/08/20 05:00:34;;;;;;;24.55;15.70;;;;;;;22.15;82.71;96563.75;5006862;28;20058;-58
2022/08/20 05:03:00;;;;;;;19.42;14.75;;;;;;;22.38;81.81;96571.78;5006666;28;20061;-66
2022/08/20 05:05:27;;;;;;;23.23;15.65;;;;;;;22.02;80.87;96475.56;5006504;28;20049;-65
2022/08/20 05:07:54;;;;;;;21.30;15.05;;;;;;;22.77;80.42;96570.34;5006316;28;20053;-62
2022/08/20 05:10:22;;;;;;;21.90;14.85;;;;;;;22.61;80.17;96525.38;5006558;28;20591;-58
2022/08/20 05:12:49;;;;;;;26.63;15.45;;;;;;;23.09;78.75;96569.91;5004890;28;20064;-58
2022/08/20 05:15:24;;;;;;;21.23;15.77;;;;;;;22.51;78.44;96472.91;5006302;28;20049;-66
2022/08/20 05:18:04;;;;;;;28.27;16.20;;;;;;;23.35;78.30;96578.97;5006113;28;20081;-66
2022/08/20 05:20:33;;;;;;;21.63;15.00;;;;;;;23.51;77.45;96584.38;5006517;28;20050;-58
2022/08/20 05:23:01;;;;;;;20.67;15.52;;;;;;;23.64;76.64;96565.25;5004557;28;20050;-58
2022/08/20 05:25:29;;;;;;;21.58;14.65;;;;;;;23.87;75.79;96578.78;5006353;28;20570;-66
2022/08/20 05:28:08;;;;;;;22.55;15.85;;;;;;;23.98;75.43;96579.16;5005996;28;20058;-61
2022/08/20 05:30:37;;;;;;;27.98;15.48;;;;;;;24.18;74.54;96582.34;5006224;28;20837;-59
2022/08/20 05:33:06;;;;;;;25.02;15.00;;;;;;;24.22;74.39;96582.94;5005730;28;20211;-65
2022/08/20 05:35:38;;;;;;;20.25;14.35;;;;;;;24.37;73.93;96589.56;5006254;28;20046;-61
2022/08/20 05:38:06;;;;;;;26.30;15.80;;;;;;;24.38;73.76;96591.13;5005695;28;20050;-66
2022/08/20 05:40:33;;;;;;;19.88;15.20;;;;;;;24.38;73.28;96579.81;5005732;28;20049;-59
2022/08/20 05:43:03;;;;;;;23.05;14.05;;;;;;;24.10;72.99;96530.13;5005955;28;20057;-59
2022/08/20 05:45:32;;;;;;;18.33;14.38;;;;;;;24.67;72.27;96580.16;5004047;28;20069;-61
2022/08/20 05:48:09;;;;;;;19.50;12.55;;;;;;;24.83;71.53;96582.59;5005580;28;20069;-65
2022/08/20 05:50:37;;;;;;;20.23;13.55;;;;;;;24.95;71.09;96573.16;5005716;28;20064;-65
2022/08/20 05:53:05;;;;;;;18.05;13.40;;;;;;;24.45;69.98;96459.78;5005090;28;20528;-65
2022/08/20 05:55:31;;;;;;;18.02;13.02;;;;;;;25.21;69.28;96557.31;5005732;28;20050;-63
2022/08/20 05:58:01;;;;;;;19.58;13.93;;;;;;;25.51;68.73;96575.34;5005249;28;20050;-65
2022/08/20 06:00:29;;;;;;;32.10;13.85;;;;;;;25.65;68.29;96571.00;5004828;28;20501;-58
2022/08/20 06:05:40;;;;;;;16.25;13.95;;;;;;;25.99;67.57;96567.63;5005584;28;20536;-58
2022/08/20 06:08:08;;;;;;;15.27;13.13;;;;;;;26.28;66.72;96560.03;5004121;28;20054;-60
2022/08/20 06:10:36;;;;;;;17.92;13.48;;;;;;;26.36;64.71;96515.00;5005645;28;20053;-65
2022/08/20 06:13:03;;;;;;;17.00;13.15;;;;;;;26.63;64.61;96548.84;5004994;28;20058;-64
2022/08/20 06:15:30;;;;;;;18.30;14.38;;;;;;;26.73;64.40;96547.47;4995225;28;20073;-55
2022/08/20 06:17:57;;;;;;;15.32;13.48;;;;;;;26.51;63.67;96498.75;4989570;28;20046;-59
2022/08/20 06:20:24;;;;;;;17.80;12.82;;;;;;;26.63;63.46;96494.84;4985128;28;20050;-65
2022/08/20 06:22:51;;;;;;;19.48;14.65;;;;;;;27.06;63.25;96545.25;4987938;28;20137;-61
2022/08/20 06:25:18;;;;;;;19.10;13.77;;;;;;;27.31;63.19;96549.56;4984936;28;20068;-61
2022/08/20 06:27:45;;;;;;;17.88;13.20;;;;;;;27.49;62.12;96549.34;4985275;28;20511;-62
2022/08/20 06:30:14;;;;;;;16.90;12.77;;;;;;;27.46;62.90;96545.41;4985111;28;20540;-61
2022/08/20 06:32:41;;;;;;;19.50;13.80;;;;;;;27.42;61.57;96493.63;4986956;28;20062;-62
2022/08/20 06:35:09;;;;;;;13.63;12.27;;;;;;;28.04;60.14;96544.47;5003811;28;20054;-61
2022/08/20 06:37:39;;;;;;;17.50;12.27;;;;;;;28.25;57.90;96551.72;5004207;28;20500;-61
2022/08/20 06:40:10;;;;;;;17.50;12.30;;;;;;;28.48;57.35;96549.94;5000459;28;20054;-65
2022/08/20 06:42:42;;;;;;;19.58;13.00;;;;;;;28.63;56.82;96550.66;4992387;28;20579;-62
2022/08/20 06:45:16;;;;;;;18.30;12.02;;;;;;;28.81;56.59;96539.69;4986146;28;20160;-59
2022/08/20 06:47:45;;;;;;;17.23;12.15;;;;;;;28.48;54.67;96481.53;4992512;28;20061;-63
2022/08/20 06:50:18;;;;;;;19.33;11.88;;;;;;;29.13;53.79;96544.16;4985785;28;20520;-61
2022/08/20 06:52:46;;;;;;;17.65;12.32;;;;;;;28.66;53.26;96455.56;4984930;28;20069;-60
2022/08/20 06:55:29;;;;;;;;;;;;;;;29.34;52.25;96542.00;4985656;28;20082;-58
2022/08/20 06:58:02;;;;;;;13.40;11.98;;;;;;;29.28;53.19;96538.31;4984692;28;19926;-61
2022/08/20 07:00:31;;;;;;;19.67;12.45;;;;;;;29.45;53.09;96525.75;4984820;28;20054;-59
2022/08/20 07:03:02;;;;;;;20.02;12.50;;;;;;;29.69;53.29;96545.41;4992780;28;20042;-58
2022/08/20 07:05:31;;;;;;;16.23;12.38;;;;;;;29.48;52.76;96523.97;5004777;28;20061;-59
2022/08/20 07:07:59;;;;;;;17.23;12.00;;;;;;;29.79;51.65;96515.34;4988531;28;20504;-59
2022/08/20 07:10:27;;;;;;;16.38;11.32;;;;;;;29.87;52.84;96527.88;4984574;28;20057;-59
2022/08/20 07:12:54;;;;;;;24.73;13.27;;;;;;;29.46;53.65;96515.91;4984338;28;20054;-69
2022/08/20 07:15:24;;;;;;;14.82;11.40;;;;;;;29.76;53.07;96521.28;4988480;28;20077;-65
2022/08/20 07:18:03;;;;;;;18.23;12.02;;;;;;;29.20;54.33;96525.78;4992955;28;20056;-60
2022/08/20 07:20:32;;;;;;;16.15;11.85;;;;;;;29.53;54.28;96508.91;4994015;28;20293;-59
2022/08/20 07:22:59;;;;;;;22.17;12.48;;;;;;;29.84;53.01;96511.75;4993947;28;20130;-64
2022/08/20 07:25:27;;;;;;;20.80;13.00;;;;;;;29.58;52.73;96465.34;4989655;28;20050;-58
2022/08/20 07:28:00;;;;;;;14.05;12.40;;;;;;;29.60;52.15;96491.31;5007655;28;20052;-65
2022/08/20 07:33:23;;;;;;;13.95;10.63;;;;;;;30.07;51.75;96496.28;4987775;28;20565;-66
2022/08/20 07:35:50;;;;;;;12.20;10.52;;;;;;;30.25;50.48;96495.88;4988469;28;20057;-63
2022/08/20 07:38:23;;;;;;;15.43;11.30;;;;;;;30.08;50.53;96462.78;4992908;28;20069;-71
2022/08/20 07:40:56;;;;;;;12.77;11.48;;;;;;;30.15;49.21;96457.34;5006493;28;20064;-61
2022/08/20 07:43:23;;;;;;;17.73;11.60;;;;;;;30.16;50.44;96492.44;5005652;28;20046;-62
2022/08/20 07:45:54;;;;;;;14.77;11.80;;;;;;;30.41;50.71;96486.56;5007835;28;20053;-61
2022/08/20 07:48:27;;;;;;;14.30;11.13;;;;;;;30.74;49.09;96480.91;5004788;28;20057;-60
2022/08/20 07:51:00;;;;;;;15.85;11.52;;;;;;;31.02;48.85;96483.03;5006007;28;20165;-61
2022/08/20 07:53:26;;;;;;;12.27;9.98;;;;;;;31.15;47.96;96463.25;5006975;28;20064;-61
2022/08/20 07:56:07;;;;;;;18.98;11.38;;;;;;;31.41;46.89;96469.53;4988108;28;20049;-60
2022/08/20 07:58:35;;;;;;;15.40;10.23;;;;;;;31.40;47.48;96462.22;5007113;28;20053;-61
2022/08/20 08:01:04;;;;;;;13.68;11.30;;;;;;;31.63;46.81;96489.53;5007430;28;20164;-60
2022/08/20 08:03:31;;;;;;;16.60;10.25;;;;;;;31.68;46.82;96474.41;5006608;28;20116;-63
2022/08/20 08:06:14;;;;;;;17.92;11.15;;;;;;;31.58;46.96;96461.69;5005209;28;20424;-66
2022/08/20 08:09:06;;;;;;;12.75;10.55;;;;;;;31.31;47.37;96439.59;5000163;28;20068;-62
2022/08/20 08:11:36;;;;;;;13.02;10.00;;;;;;;31.90;46.03;96474.38;5002224;28;20240;-58
2022/08/20 08:14:05;;;;;;;13.85;10.88;;;;;;;32.02;45.64;96467.31;5006310;28;20062;-62
2022/08/20 08:16:34;;;;;;;13.02;9.50;;;;;;;32.23;44.19;96472.16;5005619;28;20144;-59
2022/08/20 08:19:03;;;;;;;14.07;9.60;;;;;;;31.78;44.67;96461.34;5002548;28;20609;-60
2022/08/20 08:21:30;;;;;;;19.15;11.82;;;;;;;32.14;44.39;96460.19;5002110;28;20050;-62
2022/08/20 08:23:57;;;;;;;14.45;10.20;;;;;;;32.18;44.21;96457.84;5000454;28;20054;-61
2022/08/20 08:26:25;;;;;;;16.45;10.43;;;;;;;32.01;43.82;96396.97;5000491;28;20065;-59
2022/08/20 08:28:51;;;;;;;13.27;10.02;;;;;;;32.78;43.61;96448.13;4995085;28;20517;-60
2022/08/20 08:31:18;;;;;;;13.98;9.93;;;;;;;32.22;42.38;96360.88;5004215;28;20157;-60
2022/08/20 08:33:45;;;;;;;14.57;9.60;;;;;;;32.61;43.57;96433.13;5006843;28;20500;-61
2022/08/20 08:36:14;;;;;;;15.93;9.60;;;;;;;32.61;42.88;96430.28;4993056;28;20061;-62
2022/08/20 08:38:43;;;;;;;15.65;9.43;;;;;;;32.62;42.40;96423.22;5003119;28;20050;-59
2022/08/20 08:41:30;;;;;;;15.75;9.48;;;;;;;32.41;42.48;96373.28;4988242;28;20062;-58
2022/08/20 08:44:11;;;;;;;10.30;9.20;;;;;;;32.92;42.25;96429.78;4986835;28;20057;-61
2022/08/20 08:46:42;;;;;;;12.65;10.35;;;;;;;32.50;42.79;96433.19;4985565;28;20085;-60
2022/08/20 08:49:17;;;;;;;17.17;10.98;;;;;;;32.15;43.58;96425.28;4987704;28;20065;-60
2022/08/20 08:51:47;;;;;;;15.02;10.18;;;;;;;31.99;43.98;96388.09;5002172;28;20046;-60
2022/08/20 08:54:18;;;;;;;13.13;9.55;;;;;;;32.65;42.54;96421.34;4988639;28;20074;-64
2022/08/20 08:56:47;;;;;;;16.65;13.00;;;;;;;33.02;40.60;96410.91;4986880;28;20966;-60
2022/08/20 08:59:17;;;;;;;10.13;9.13;;;;;;;33.18;40.68;96407.09;4986677;28;20378;-60
2022/08/20 09:01:55;;;;;;;12.55;9.65;;;;;;;32.74;39.88;96407.47;4985948;28;20440;-62
2022/08/20 09:04:31;;;;;;;12.35;9.68;;;;;;;32.79;40.22;96403.78;4994966;28;20052;-61
2022/08/20 09:07:00;;;;;;;11.68;8.98;;;;;;;32.72;39.96;96357.66;5005659;28;20104;-62
2022/08/20 09:09:34;;;;;;;11.32;8.52;;;;;;;33.52;38.71;96405.50;5004218;28;20057;-59
2022/08/20 09:12:06;;;;;;;10.38;8.80;;;;;;;33.77;37.58;96412.00;5004383;28;20050;-59
2022/08/20 09:14:33;;;;;;;12.40;8.48;;;;;;;33.81;36.19;96374.34;5003837;28;20519;-61
2022/08/20 09:17:00;;;;;;;12.00;8.00;;;;;;;34.19;36.15;96396.09;5005560;28;20061;-58
2022/08/20 09:19:27;;;;;;;13.75;8.93;;;;;;;33.81;36.18;96313.97;5004492;28;20046;-61
2022/08/20 09:21:54;;;;;;;9.95;7.75;;;;;;;34.08;36.38;96394.13;5006011;28;20106;-59
2022/08/20 09:24:20;;;;;;;10.00;8.00;;;;;;;33.85;35.71;96360.41;5005845;28;20062;-61
2022/08/20 09:26:47;;;;;;;13.07;9.57;;;;;;;33.87;36.50;96358.56;5005337;28;20046;-61
2022/08/20 09:29:14;;;;;;;9.30;8.40;;;;;;;34.51;35.70;96376.81;5005421;28;20057;-58
2022/08/20 09:31:40;;;;;;;10.30;8.90;;;;;;;34.90;35.12;96385.63;5005534;28;20046;-59
2022/08/20 09:34:08;;;;;;;12.45;9.23;;;;;;;35.11;35.64;96387.34;5004184;28;20421;-59
2022/08/20 09:36:34;;;;;;;13.57;9.82;;;;;;;35.01;35.39;96354.53;4995548;28;20050;-60
2022/08/20 09:39:01;;;;;;;12.88;9.15;;;;;;;35.65;34.97;96386.09;4985652;28;20057;-57
2022/08/20 09:41:30;;;;;;;11.93;9.13;;;;;;;35.21;33.61;96343.72;4985702;28;20112;-61
2022/08/20 09:43:59;;;;;;;11.93;8.48;;;;;;;34.83;34.11;96312.16;4985666;28;20109;-62
2022/08/20 09:46:25;;;;;;;11.50;8.23;;;;;;;35.21;33.68;96373.28;4990080;28;20089;-59
2022/08/20 09:48:53;;;;;;;8.55;7.60;;;;;;;35.07;34.34;96331.41;4986703;28;20054;-60
2022/08/20 09:51:21;;;;;;;9.68;7.80;;;;;;;36.06;33.27;96378.47;4984887;28;20116;-59
2022/08/20 09:53:48;;;;;;;11.75;8.43;;;;;;;35.77;32.97;96373.03;4985602;28;20065;-58
2022/08/20 09:56:16;;;;;;;11.90;9.00;;;;;;;35.83;32.84;96368.75;4986078;28;20050;-58
2022/08/20 09:58:52;;;;;;;16.13;8.02;;;;;;;35.73;32.96;96364.72;4985685;28;20046;-59
2022/08/20 10:01:21;;;;;;;8.73;7.85;;;;;;;35.10;33.22;96319.56;4986031;28;20065;-61
2022/08/20 10:03:49;;;;;;;9.70;8.13;;;;;;;35.15;34.30;96361.09;4985891;28;20052;-60
2022/08/20 10:06:19;;;;;;;9.32;8.40;;;;;;;35.02;35.14;96369.72;4984552;28;20060;-61
2022/08/20 10:08:47;;;;;;;9.68;8.88;;;;;;;34.85;35.05;96337.53;4985829;28;20050;-59
2022/08/20 10:11:14;;;;;;;10.82;8.63;;;;;;;34.99;35.38;96393.84;4984478;28;20059;-61
2022/08/20 10:13:43;;;;;;;10.52;8.40;;;;;;;34.97;36.28;96350.41;4984242;28;20256;-61
2022/08/20 10:16:11;;;;;;;9.38;8.40;;;;;;;34.50;35.81;96317.69;4984877;28;20129;-61
2022/08/20 10:18:38;;;;;;;9.05;8.13;;;;;;;34.55;35.81;96368.63;4986000;28;20058;-59
2022/08/20 10:21:10;;;;;;;9.25;8.40;;;;;;;33.95;36.56;96359.53;4985364;28;20101;-60
2022/08/20 10:23:37;;;;;;;9.38;8.30;;;;;;;34.31;36.61;96357.19;4982830;28;20056;-60
2022/08/20 10:26:04;;;;;;;11.15;9.20;;;;;;;34.36;36.79;96362.09;4983876;28;20058;-58
2022/08/20 10:28:30;;;;;;;9.98;8.30;;;;;;;34.44;36.14;96314.16;4985268;28;20062;-58
2022/08/20 10:30:57;;;;;;;15.02;8.23;;;;;;;34.86;35.46;96321.78;4985548;28;20057;-59
2022/08/20 10:33:23;;;;;;;15.70;9.65;;;;;;;35.04;34.85;96280.66;4985523;28;20054;-61
2022/08/20 10:35:50;;;;;;;13.43;8.45;;;;;;;35.60;34.16;96341.66;4989000;28;20054;-60
2022/08/20 10:38:25;;;;;;;11.00;8.20;;;;;;;35.64;34.55;96333.47;5003561;28;20081;-59
2022/08/20 10:40:52;;;;;;;13.85;9.80;;;;;;;35.87;33.71;96340.34;5004546;28;20058;-59
2022/08/20 10:43:18;;;;;;;13.00;8.65;;;;;;;35.80;33.42;96329.47;5003495;28;20054;-57
2022/08/20 10:45:45;;;;;;;12.95;8.38;;;;;;;35.78;33.53;96332.13;5003654;28;20248;-58
2022/08/20 10:48:12;;;;;;;11.25;8.15;;;;;;;35.77;33.45;96336.34;5001288;28;20460;-60
2022/08/20 10:50:42;;;;;;;10.95;9.40;;;;;;;35.52;34.25;96332.13;5003440;28;20054;-60
2022/08/20 10:53:09;;;;;;;12.98;9.10;;;;;;;35.17;34.47;96329.66;5001126;28;20057;-59
2022/08/20 10:55:35;;;;;;;8.38;7.50;;;;;;;34.05;35.61;96328.31;5003684;28;20065;-60
2022/08/20 10:58:05;;;;;;;10.35;8.60;;;;;;;34.21;34.56;96289.91;5002613;28;20480;-60
2022/08/20 11:00:32;;;;;;;9.77;8.68;;;;;;;34.99;34.62;96321.84;5001534;28;20501;-60
2022/08/20 11:02:59;;;;;;;12.85;10.23;;;;;;;35.16;34.16;96315.81;5002640;28;20046;-60
2022/08/20 11:05:26;;;;;;;12.00;8.52;;;;;;;34.78;33.81;96309.38;5002438;28;20054;-59
2022/08/20 11:07:53;;;;;;;10.55;8.32;;;;;;;34.84;34.15;96312.94;5002206;28;20057;-60
2022/08/20 11:10:27;;;;;;;12.68;9.40;;;;;;;35.51;33.10;96319.06;5002401;28;20050;-59
2022/08/20 11:12:54;;;;;;;12.60;9.20;;;;;;;36.07;33.21;96307.91;5002563;28;20049;-59
2022/08/20 11:15:21;;;;;;;10.15;9.10;;;;;;;36.22;32.76;96313.84;5004574;28;20500;-58
2022/08/20 11:17:48;;;;;;;11.02;9.70;;;;;;;36.35;32.35;96305.19;5002899;28;20053;-58
2022/08/20 11:20:17;;;;;;;11.98;9.35;;;;;;;36.49;32.18;96303.78;5004490;28;20053;-60
2022/08/20 11:22:44;;;;;;;12.85;10.00;;;;;;;35.83;32.31;96212.22;5003008;28;20054;-60
2022/08/20 11:25:11;;;;;;;10.63;9.45;;;;;;;36.67;31.78;96295.50;5004533;28;20108;-59
2022/08/20 11:27:41;;;;;;;16.35;10.10;;;;;;;36.85;31.71;96283.00;5004480;28;20054;-59
2022/08/20 11:30:12;;;;;;;9.65;8.73;;;;;;;37.05;31.26;96302.41;5003053;28;20061;-58
2022/08/20 11:32:38;;;;;;;13.13;9.48;;;;;;;36.93;31.07;96278.81;5004830;28;20046;-60
2022/08/20 11:35:05;;;;;;;12.88;8.85;;;;;;;37.22;30.90;96288.28;5004331;28;20064;-59
2022/08/20 11:37:54;;;;;;;11.38;8.75;;;;;;;37.36;30.90;96281.06;4984823;28;20050;-59
2022/08/20 11:40:22;;;;;;;10.82;8.45;;;;;;;37.09;30.81;96256.59;4985013;28;20050;-59
2022/08/20 11:42:48;;;;;;;10.63;8.65;;;;;;;37.09;30.21;96259.47;4984576;28;20081;-60